sensor_id;sensor_type;location;lat;lon;timestamp;P1;durP1;ratioP1;P2;durP2;ratioP2
66739;SDS011;53653;52.188;8.602;2023-08-17T00:00:10;6.63;;;2.27;;
66739;SDS011;53653;52.188;8.602;2023-08-17T00:02:39;8.20;;;2.80;;
66739;SDS011;53653;52.188;8.602;2023-08-17T00:05:05;7.57;;;3.20;;
66739;SDS011;53653;52.188;8.602;2023-08-17T00:07:32;6.55;;;3.03;;
66739;SDS011;53653;52.188;8.602;2023-08-17T00:09:57;8.40;;;2.90;;
66739;SDS011;53653;52.188;8.602;2023-08-17T00:12:23;8.77;;;2.90;;
66739;SDS011;53653;52.188;8.602;2023-08-17T00:14:48;10.50;;;2.83;;
66739;SDS011;53653;52.188;8.602;2023-08-17T00:17:14;8.90;;;3.07;;
66739;SDS011;53653;52.188;8.602;2023-08-17T00:19:39;5.37;;;2.20;;
66739;SDS011;53653;52.188;8.602;2023-08-17T00:22:05;9.68;;;3.05;;
66739;SDS011;53653;52.188;8.602;2023-08-17T00:24:30;6.93;;;2.70;;
66739;SDS011;53653;52.188;8.602;2023-08-17T00:26:56;7.33;;;2.70;;
66739;SDS011;53653;52.188;8.602;2023-08-17T00:29:22;8.88;;;2.80;;
66739;SDS011;53653;52.188;8.602;2023-08-17T00:31:48;8.17;;;2.83;;
66739;SDS011;53653;52.188;8.602;2023-08-17T00:34:13;9.40;;;3.05;;
66739;SDS011;53653;52.188;8.602;2023-08-17T00:36:38;8.77;;;3.10;;
66739;SDS011;53653;52.188;8.602;2023-08-17T00:39:04;11.83;;;3.50;;
66739;SDS011;53653;52.188;8.602;2023-08-17T00:41:29;12.10;;;3.70;;
66739;SDS011;53653;52.188;8.602;2023-08-17T00:43:55;8.60;;;3.07;;
66739;SDS011;53653;52.188;8.602;2023-08-17T00:46:23;8.60;;;3.40;;
66739;SDS011;53653;52.188;8.602;2023-08-17T00:48:50;9.70;;;3.35;;
66739;SDS011;53653;52.188;8.602;2023-08-17T00:51:16;10.55;;;3.40;;
66739;SDS011;53653;52.188;8.602;2023-08-17T00:53:42;5.83;;;2.73;;
66739;SDS011;53653;52.188;8.602;2023-08-17T00:56:07;7.97;;;3.17;;
66739;SDS011;53653;52.188;8.602;2023-08-17T00:58:33;6.45;;;2.83;;
66739;SDS011;53653;52.188;8.602;2023-08-17T01:00:59;13.30;;;3.20;;
66739;SDS011;53653;52.188;8.602;2023-08-17T01:03:27;8.05;;;3.00;;
66739;SDS011;53653;52.188;8.602;2023-08-17T01:05:55;8.40;;;2.83;;
66739;SDS011;53653;52.188;8.602;2023-08-17T01:08:22;10.75;;;3.25;;
66739;SDS011;53653;52.188;8.602;2023-08-17T01:11:01;11.80;;;3.33;;
66739;SDS011;53653;52.188;8.602;2023-08-17T01:13:35;8.80;;;3.15;;
66739;SDS011;53653;52.188;8.602;2023-08-17T01:16:35;8.30;;;3.03;;
66739;SDS011;53653;52.188;8.602;2023-08-17T01:19:13;8.15;;;2.90;;
66739;SDS011;53653;52.188;8.602;2023-08-17T01:21:49;8.67;;;3.20;;
66739;SDS011;53653;52.188;8.602;2023-08-17T01:24:15;9.60;;;3.30;;
66739;SDS011;53653;52.188;8.602;2023-08-17T01:26:41;8.13;;;3.27;;
66739;SDS011;53653;52.188;8.602;2023-08-17T01:29:07;11.80;;;4.53;;
66739;SDS011;53653;52.188;8.602;2023-08-17T01:31:42;6.65;;;3.20;;
66739;SDS011;53653;52.188;8.602;2023-08-17T01:34:25;9.95;;;3.67;;
66739;SDS011;53653;52.188;8.602;2023-08-17T01:36:54;8.07;;;2.63;;
66739;SDS011;53653;52.188;8.602;2023-08-17T01:39:26;9.77;;;2.60;;
66739;SDS011;53653;52.188;8.602;2023-08-17T01:41:57;10.52;;;3.38;;
66739;SDS011;53653;52.188;8.602;2023-08-17T01:44:25;7.72;;;3.13;;
66739;SDS011;53653;52.188;8.602;2023-08-17T01:46:52;9.32;;;3.38;;
66739;SDS011;53653;52.188;8.602;2023-08-17T01:49:18;8.67;;;3.10;;
66739;SDS011;53653;52.188;8.602;2023-08-17T01:51:44;10.75;;;3.22;;
66739;SDS011;53653;52.188;8.602;2023-08-17T01:54:09;7.13;;;2.40;;
66739;SDS011;53653;52.188;8.602;2023-08-17T01:56:35;8.63;;;4.03;;
66739;SDS011;53653;52.188;8.602;2023-08-17T01:59:00;12.05;;;3.35;;
66739;SDS011;53653;52.188;8.602;2023-08-17T02:01:26;6.80;;;3.00;;
66739;SDS011;53653;52.188;8.602;2023-08-17T02:03:51;7.83;;;3.07;;
66739;SDS011;53653;52.188;8.602;2023-08-17T02:06:17;8.60;;;3.30;;
66739;SDS011;53653;52.188;8.602;2023-08-17T02:08:43;7.57;;;3.07;;
66739;SDS011;53653;52.188;8.602;2023-08-17T02:11:09;6.10;;;2.40;;
66739;SDS011;53653;52.188;8.602;2023-08-17T02:13:37;8.68;;;3.17;;
66739;SDS011;53653;52.188;8.602;2023-08-17T02:16:04;9.60;;;3.50;;
66739;SDS011;53653;52.188;8.602;2023-08-17T02:18:29;9.32;;;3.70;;
66739;SDS011;53653;52.188;8.602;2023-08-17T02:20:57;9.20;;;3.42;;
66739;SDS011;53653;52.188;8.602;2023-08-17T02:23:22;9.10;;;3.30;;
66739;SDS011;53653;52.188;8.602;2023-08-17T02:25:48;11.38;;;4.10;;
66739;SDS011;53653;52.188;8.602;2023-08-17T02:28:13;11.20;;;4.40;;
66739;SDS011;53653;52.188;8.602;2023-08-17T02:30:39;11.50;;;3.80;;
66739;SDS011;53653;52.188;8.602;2023-08-17T02:33:04;7.75;;;3.20;;
66739;SDS011;53653;52.188;8.602;2023-08-17T02:35:30;12.07;;;3.77;;
66739;SDS011;53653;52.188;8.602;2023-08-17T02:37:56;8.60;;;3.88;;
66739;SDS011;53653;52.188;8.602;2023-08-17T02:40:21;9.27;;;3.57;;
66739;SDS011;53653;52.188;8.602;2023-08-17T02:42:47;10.73;;;4.05;;
66739;SDS011;53653;52.188;8.602;2023-08-17T02:45:14;9.20;;;3.67;;
66739;SDS011;53653;52.188;8.602;2023-08-17T02:47:39;8.55;;;3.10;;
66739;SDS011;53653;52.188;8.602;2023-08-17T02:50:05;10.93;;;3.80;;
66739;SDS011;53653;52.188;8.602;2023-08-17T02:52:32;11.23;;;3.90;;
66739;SDS011;53653;52.188;8.602;2023-08-17T02:54:57;9.13;;;3.70;;
66739;SDS011;53653;52.188;8.602;2023-08-17T02:57:23;7.47;;;3.90;;
66739;SDS011;53653;52.188;8.602;2023-08-17T02:59:49;9.93;;;3.80;;
66739;SDS011;53653;52.188;8.602;2023-08-17T03:02:14;9.85;;;3.90;;
66739;SDS011;53653;52.188;8.602;2023-08-17T03:04:40;8.47;;;4.23;;
66739;SDS011;53653;52.188;8.602;2023-08-17T03:07:06;9.30;;;3.50;;
66739;SDS011;53653;52.188;8.602;2023-08-17T03:09:31;10.30;;;4.03;;
66739;SDS011;53653;52.188;8.602;2023-08-17T03:11:57;13.40;;;4.37;;
66739;SDS011;53653;52.188;8.602;2023-08-17T03:14:22;10.80;;;4.15;;
66739;SDS011;53653;52.188;8.602;2023-08-17T03:16:48;9.80;;;3.80;;
66739;SDS011;53653;52.188;8.602;2023-08-17T03:19:14;9.43;;;3.88;;
66739;SDS011;53653;52.188;8.602;2023-08-17T03:21:41;11.57;;;3.97;;
66739;SDS011;53653;52.188;8.602;2023-08-17T03:24:07;12.83;;;4.53;;
66739;SDS011;53653;52.188;8.602;2023-08-17T03:26:33;8.85;;;4.10;;
66739;SDS011;53653;52.188;8.602;2023-08-17T03:28:58;9.10;;;4.33;;
66739;SDS011;53653;52.188;8.602;2023-08-17T03:31:24;10.52;;;4.30;;
66739;SDS011;53653;52.188;8.602;2023-08-17T03:33:50;12.30;;;4.70;;
66739;SDS011;53653;52.188;8.602;2023-08-17T03:36:16;11.10;;;3.92;;
66739;SDS011;53653;52.188;8.602;2023-08-17T03:38:42;8.60;;;3.63;;
66739;SDS011;53653;52.188;8.602;2023-08-17T03:41:07;8.37;;;3.47;;
66739;SDS011;53653;52.188;8.602;2023-08-17T03:43:33;10.20;;;4.05;;
66739;SDS011;53653;52.188;8.602;2023-08-17T03:45:59;10.70;;;3.97;;
66739;SDS011;53653;52.188;8.602;2023-08-17T03:48:25;9.43;;;4.23;;
66739;SDS011;53653;52.188;8.602;2023-08-17T03:50:51;10.05;;;3.92;;
66739;SDS011;53653;52.188;8.602;2023-08-17T03:53:18;10.85;;;3.70;;
66739;SDS011;53653;52.188;8.602;2023-08-17T03:55:47;8.17;;;3.67;;
66739;SDS011;53653;52.188;8.602;2023-08-17T03:58:13;12.43;;;3.65;;
66739;SDS011;53653;52.188;8.602;2023-08-17T04:00:39;9.95;;;3.90;;
66739;SDS011;53653;52.188;8.602;2023-08-17T04:03:06;9.60;;;3.93;;
66739;SDS011;53653;52.188;8.602;2023-08-17T04:05:32;9.40;;;4.20;;
66739;SDS011;53653;52.188;8.602;2023-08-17T04:07:58;10.30;;;4.28;;
66739;SDS011;53653;52.188;8.602;2023-08-17T04:10:27;9.48;;;4.10;;
66739;SDS011;53653;52.188;8.602;2023-08-17T04:12:53;9.50;;;4.40;;
66739;SDS011;53653;52.188;8.602;2023-08-17T04:15:19;11.07;;;5.37;;
66739;SDS011;53653;52.188;8.602;2023-08-17T04:17:45;9.43;;;3.97;;
66739;SDS011;53653;52.188;8.602;2023-08-17T04:20:10;9.60;;;3.80;;
66739;SDS011;53653;52.188;8.602;2023-08-17T04:22:36;11.17;;;3.97;;
66739;SDS011;53653;52.188;8.602;2023-08-17T04:25:02;12.48;;;3.90;;
66739;SDS011;53653;52.188;8.602;2023-08-17T04:27:27;8.43;;;3.53;;
66739;SDS011;53653;52.188;8.602;2023-08-17T04:29:53;10.38;;;4.43;;
66739;SDS011;53653;52.188;8.602;2023-08-17T04:32:20;10.20;;;4.13;;
66739;SDS011;53653;52.188;8.602;2023-08-17T04:34:45;10.00;;;3.95;;
66739;SDS011;53653;52.188;8.602;2023-08-17T04:37:14;9.93;;;4.00;;
66739;SDS011;53653;52.188;8.602;2023-08-17T04:39:40;9.70;;;4.10;;
66739;SDS011;53653;52.188;8.602;2023-08-17T04:42:07;13.07;;;4.90;;
66739;SDS011;53653;52.188;8.602;2023-08-17T04:44:33;11.27;;;4.03;;
66739;SDS011;53653;52.188;8.602;2023-08-17T04:46:59;9.60;;;4.13;;
66739;SDS011;53653;52.188;8.602;2023-08-17T04:49:25;15.03;;;4.90;;
66739;SDS011;53653;52.188;8.602;2023-08-17T04:51:51;9.77;;;4.25;;
66739;SDS011;53653;52.188;8.602;2023-08-17T04:54:17;11.50;;;4.30;;
66739;SDS011;53653;52.188;8.602;2023-08-17T04:56:43;9.73;;;4.70;;
66739;SDS011;53653;52.188;8.602;2023-08-17T04:59:08;10.17;;;3.97;;
66739;SDS011;53653;52.188;8.602;2023-08-17T05:01:34;11.30;;;4.85;;
66739;SDS011;53653;52.188;8.602;2023-08-17T05:04:01;10.27;;;4.20;;
66739;SDS011;53653;52.188;8.602;2023-08-17T05:06:30;11.27;;;3.83;;
66739;SDS011;53653;52.188;8.602;2023-08-17T05:08:56;12.03;;;4.80;;
66739;SDS011;53653;52.188;8.602;2023-08-17T05:11:23;10.82;;;4.70;;
66739;SDS011;53653;52.188;8.602;2023-08-17T05:13:49;8.93;;;3.85;;
66739;SDS011;53653;52.188;8.602;2023-08-17T05:16:14;8.70;;;4.53;;
66739;SDS011;53653;52.188;8.602;2023-08-17T05:18:40;12.85;;;4.80;;
66739;SDS011;53653;52.188;8.602;2023-08-17T05:21:07;10.35;;;4.50;;
66739;SDS011;53653;52.188;8.602;2023-08-17T05:23:32;13.50;;;4.83;;
66739;SDS011;53653;52.188;8.602;2023-08-17T05:25:58;12.27;;;4.60;;
66739;SDS011;53653;52.188;8.602;2023-08-17T05:28:24;10.18;;;4.15;;
66739;SDS011;53653;52.188;8.602;2023-08-17T05:30:49;10.87;;;3.87;;
66739;SDS011;53653;52.188;8.602;2023-08-17T05:33:15;12.10;;;4.95;;
66739;SDS011;53653;52.188;8.602;2023-08-17T05:35:40;10.30;;;4.63;;
66739;SDS011;53653;52.188;8.602;2023-08-17T05:38:07;10.82;;;5.00;;
66739;SDS011;53653;52.188;8.602;2023-08-17T05:40:35;10.50;;;4.88;;
66739;SDS011;53653;52.188;8.602;2023-08-17T05:43:00;10.13;;;4.60;;
66739;SDS011;53653;52.188;8.602;2023-08-17T05:45:26;11.40;;;5.80;;
66739;SDS011;53653;52.188;8.602;2023-08-17T05:47:51;12.17;;;5.60;;
66739;SDS011;53653;52.188;8.602;2023-08-17T05:50:17;12.80;;;6.13;;
66739;SDS011;53653;52.188;8.602;2023-08-17T05:52:43;11.03;;;5.93;;
66739;SDS011;53653;52.188;8.602;2023-08-17T05:55:08;15.02;;;6.80;;
66739;SDS011;53653;52.188;8.602;2023-08-17T05:57:34;11.43;;;5.70;;
66739;SDS011;53653;52.188;8.602;2023-08-17T06:03:47;16.52;;;6.80;;
66739;SDS011;53653;52.188;8.602;2023-08-17T06:06:12;12.40;;;5.82;;
66739;SDS011;53653;52.188;8.602;2023-08-17T06:08:40;14.43;;;7.37;;
66739;SDS011;53653;52.188;8.602;2023-08-17T06:11:09;11.75;;;6.43;;
66739;SDS011;53653;52.188;8.602;2023-08-17T06:13:38;14.88;;;6.68;;
66739;SDS011;53653;52.188;8.602;2023-08-17T06:16:05;13.03;;;6.33;;
66739;SDS011;53653;52.188;8.602;2023-08-17T06:18:44;11.38;;;5.65;;
66739;SDS011;53653;52.188;8.602;2023-08-17T06:21:12;14.20;;;6.30;;
66739;SDS011;53653;52.188;8.602;2023-08-17T06:23:43;15.30;;;6.40;;
66739;SDS011;53653;52.188;8.602;2023-08-17T06:26:09;13.90;;;5.97;;
66739;SDS011;53653;52.188;8.602;2023-08-17T06:28:40;14.68;;;6.53;;
66739;SDS011;53653;52.188;8.602;2023-08-17T06:31:17;12.65;;;6.70;;
66739;SDS011;53653;52.188;8.602;2023-08-17T06:33:45;11.52;;;6.35;;
66739;SDS011;53653;52.188;8.602;2023-08-17T06:36:12;15.30;;;7.00;;
66739;SDS011;53653;52.188;8.602;2023-08-17T06:38:42;14.83;;;6.97;;
66739;SDS011;53653;52.188;8.602;2023-08-17T06:41:10;15.45;;;7.00;;
66739;SDS011;53653;52.188;8.602;2023-08-17T06:43:37;14.40;;;6.70;;
66739;SDS011;53653;52.188;8.602;2023-08-17T06:46:05;19.63;;;7.93;;
66739;SDS011;53653;52.188;8.602;2023-08-17T06:48:31;14.40;;;7.10;;
66739;SDS011;53653;52.188;8.602;2023-08-17T06:50:59;14.18;;;7.20;;
66739;SDS011;53653;52.188;8.602;2023-08-17T06:53:25;15.68;;;7.78;;
66739;SDS011;53653;52.188;8.602;2023-08-17T06:55:51;16.10;;;7.40;;
66739;SDS011;53653;52.188;8.602;2023-08-17T06:58:21;13.75;;;7.15;;
66739;SDS011;53653;52.188;8.602;2023-08-17T07:00:49;12.95;;;7.40;;
66739;SDS011;53653;52.188;8.602;2023-08-17T07:03:18;14.17;;;7.23;;
66739;SDS011;53653;52.188;8.602;2023-08-17T07:05:44;15.77;;;8.23;;
66739;SDS011;53653;52.188;8.602;2023-08-17T07:08:11;15.88;;;8.15;;
66739;SDS011;53653;52.188;8.602;2023-08-17T07:10:37;19.48;;;8.25;;
66739;SDS011;53653;52.188;8.602;2023-08-17T07:13:04;14.88;;;7.97;;
66739;SDS011;53653;52.188;8.602;2023-08-17T07:15:32;12.27;;;6.40;;
66739;SDS011;53653;52.188;8.602;2023-08-17T07:17:58;12.95;;;6.93;;
66739;SDS011;53653;52.188;8.602;2023-08-17T07:20:26;17.00;;;8.20;;
66739;SDS011;53653;52.188;8.602;2023-08-17T07:22:52;18.55;;;8.68;;
66739;SDS011;53653;52.188;8.602;2023-08-17T07:25:26;17.33;;;8.53;;
66739;SDS011;53653;52.188;8.602;2023-08-17T07:28:11;18.27;;;8.52;;
66739;SDS011;53653;52.188;8.602;2023-08-17T07:30:40;14.32;;;8.43;;
66739;SDS011;53653;52.188;8.602;2023-08-17T07:33:08;16.98;;;9.25;;
66739;SDS011;53653;52.188;8.602;2023-08-17T07:35:41;14.85;;;8.45;;
66739;SDS011;53653;52.188;8.602;2023-08-17T07:38:57;18.73;;;8.67;;
66739;SDS011;53653;52.188;8.602;2023-08-17T07:41:40;14.68;;;7.22;;
66739;SDS011;53653;52.188;8.602;2023-08-17T07:44:11;14.55;;;7.05;;
66739;SDS011;53653;52.188;8.602;2023-08-17T07:46:39;16.08;;;6.70;;
66739;SDS011;53653;52.188;8.602;2023-08-17T07:49:09;14.93;;;7.90;;
66739;SDS011;53653;52.188;8.602;2023-08-17T07:51:37;17.37;;;8.20;;
66739;SDS011;53653;52.188;8.602;2023-08-17T07:54:20;21.70;;;8.10;;
66739;SDS011;53653;52.188;8.602;2023-08-17T07:57:42;11.00;;;6.03;;
66739;SDS011;53653;52.188;8.602;2023-08-17T08:00:10;13.32;;;6.53;;
66739;SDS011;53653;52.188;8.602;2023-08-17T08:02:37;17.08;;;7.47;;
66739;SDS011;53653;52.188;8.602;2023-08-17T08:05:08;9.83;;;5.13;;
66739;SDS011;53653;52.188;8.602;2023-08-17T08:07:35;18.85;;;8.30;;
66739;SDS011;53653;52.188;8.602;2023-08-17T08:10:18;13.50;;;6.80;;
66739;SDS011;53653;52.188;8.602;2023-08-17T08:12:47;13.35;;;6.32;;
66739;SDS011;53653;52.188;8.602;2023-08-17T08:15:13;13.50;;;6.97;;
66739;SDS011;53653;52.188;8.602;2023-08-17T08:17:40;12.87;;;6.00;;
66739;SDS011;53653;52.188;8.602;2023-08-17T08:20:06;15.70;;;7.53;;
66739;SDS011;53653;52.188;8.602;2023-08-17T08:22:35;11.52;;;5.57;;
66739;SDS011;53653;52.188;8.602;2023-08-17T08:25:05;14.95;;;6.53;;
66739;SDS011;53653;52.188;8.602;2023-08-17T08:27:35;13.07;;;6.40;;
66739;SDS011;53653;52.188;8.602;2023-08-17T08:30:03;12.77;;;6.53;;
66739;SDS011;53653;52.188;8.602;2023-08-17T08:32:30;12.88;;;7.40;;
66739;SDS011;53653;52.188;8.602;2023-08-17T08:34:56;13.13;;;6.40;;
66739;SDS011;53653;52.188;8.602;2023-08-17T08:37:22;13.82;;;6.25;;
66739;SDS011;53653;52.188;8.602;2023-08-17T08:39:56;11.57;;;6.60;;
66739;SDS011;53653;52.188;8.602;2023-08-17T08:42:22;13.80;;;6.35;;
66739;SDS011;53653;52.188;8.602;2023-08-17T08:44:53;13.65;;;6.22;;
66739;SDS011;53653;52.188;8.602;2023-08-17T08:47:21;13.40;;;6.70;;
66739;SDS011;53653;52.188;8.602;2023-08-17T08:52:28;13.48;;;6.50;;
66739;SDS011;53653;52.188;8.602;2023-08-17T08:55:02;12.63;;;6.68;;
66739;SDS011;53653;52.188;8.602;2023-08-17T08:57:37;12.48;;;6.80;;
66739;SDS011;53653;52.188;8.602;2023-08-17T09:00:04;11.47;;;7.13;;
66739;SDS011;53653;52.188;8.602;2023-08-17T09:02:31;12.70;;;6.25;;
66739;SDS011;53653;52.188;8.602;2023-08-17T09:04:59;12.63;;;5.75;;
66739;SDS011;53653;52.188;8.602;2023-08-17T09:07:26;14.23;;;7.50;;
66739;SDS011;53653;52.188;8.602;2023-08-17T09:09:55;15.27;;;8.25;;
66739;SDS011;53653;52.188;8.602;2023-08-17T09:12:37;15.00;;;7.23;;
66739;SDS011;53653;52.188;8.602;2023-08-17T09:15:48;15.18;;;7.93;;
66739;SDS011;53653;52.188;8.602;2023-08-17T09:18:17;15.82;;;7.78;;
66739;SDS011;53653;52.188;8.602;2023-08-17T09:20:48;13.45;;;7.30;;
66739;SDS011;53653;52.188;8.602;2023-08-17T09:23:28;14.75;;;7.53;;
66739;SDS011;53653;52.188;8.602;2023-08-17T09:25:55;16.10;;;8.77;;
66739;SDS011;53653;52.188;8.602;2023-08-17T09:28:23;14.15;;;7.75;;
66739;SDS011;53653;52.188;8.602;2023-08-17T09:30:59;12.98;;;7.38;;
66739;SDS011;53653;52.188;8.602;2023-08-17T09:33:31;14.70;;;7.88;;
66739;SDS011;53653;52.188;8.602;2023-08-17T09:36:01;13.90;;;7.80;;
66739;SDS011;53653;52.188;8.602;2023-08-17T09:38:28;15.47;;;8.03;;
66739;SDS011;53653;52.188;8.602;2023-08-17T09:40:59;14.35;;;7.45;;
66739;SDS011;53653;52.188;8.602;2023-08-17T09:43:32;15.60;;;7.75;;
66739;SDS011;53653;52.188;8.602;2023-08-17T09:46:06;16.00;;;8.70;;
66739;SDS011;53653;52.188;8.602;2023-08-17T09:48:35;15.32;;;8.07;;
66739;SDS011;53653;52.188;8.602;2023-08-17T09:51:02;14.00;;;8.40;;
66739;SDS011;53653;52.188;8.602;2023-08-17T09:53:35;15.07;;;8.52;;
66739;SDS011;53653;52.188;8.602;2023-08-17T09:56:03;16.48;;;8.60;;
66739;SDS011;53653;52.188;8.602;2023-08-17T09:58:39;14.93;;;7.70;;
66739;SDS011;53653;52.188;8.602;2023-08-17T10:01:14;14.55;;;8.07;;
66739;SDS011;53653;52.188;8.602;2023-08-17T10:03:51;12.73;;;7.47;;
66739;SDS011;53653;52.188;8.602;2023-08-17T10:06:22;12.80;;;6.45;;
66739;SDS011;53653;52.188;8.602;2023-08-17T10:08:54;15.32;;;8.32;;
66739;SDS011;53653;52.188;8.602;2023-08-17T10:11:26;13.80;;;7.20;;
66739;SDS011;53653;52.188;8.602;2023-08-17T10:13:59;13.23;;;6.43;;
66739;SDS011;53653;52.188;8.602;2023-08-17T10:16:41;13.07;;;7.47;;
66739;SDS011;53653;52.188;8.602;2023-08-17T10:19:20;12.73;;;6.53;;
66739;SDS011;53653;52.188;8.602;2023-08-17T10:22:00;15.23;;;8.45;;
66739;SDS011;53653;52.188;8.602;2023-08-17T10:24:37;18.38;;;9.30;;
66739;SDS011;53653;52.188;8.602;2023-08-17T10:27:15;20.15;;;8.65;;
66739;SDS011;53653;52.188;8.602;2023-08-17T10:29:43;15.17;;;8.07;;
66739;SDS011;53653;52.188;8.602;2023-08-17T10:32:21;19.33;;;9.48;;
66739;SDS011;53653;52.188;8.602;2023-08-17T10:34:47;15.25;;;7.82;;
66739;SDS011;53653;52.188;8.602;2023-08-17T10:37:15;18.38;;;9.23;;
66739;SDS011;53653;52.188;8.602;2023-08-17T10:39:47;17.73;;;8.65;;
66739;SDS011;53653;52.188;8.602;2023-08-17T10:42:35;15.90;;;7.97;;
66739;SDS011;53653;52.188;8.602;2023-08-17T10:48:42;17.98;;;8.23;;
66739;SDS011;53653;52.188;8.602;2023-08-17T10:51:00;16.67;;;8.98;;
66739;SDS011;53653;52.188;8.602;2023-08-17T10:53:35;13.23;;;7.53;;
66739;SDS011;53653;52.188;8.602;2023-08-17T10:56:11;16.43;;;8.37;;
66739;SDS011;53653;52.188;8.602;2023-08-17T10:58:53;14.88;;;9.00;;
66739;SDS011;53653;52.188;8.602;2023-08-17T11:01:32;16.17;;;8.68;;
66739;SDS011;53653;52.188;8.602;2023-08-17T11:04:11;20.60;;;8.65;;
66739;SDS011;53653;52.188;8.602;2023-08-17T11:06:44;14.38;;;7.30;;
66739;SDS011;53653;52.188;8.602;2023-08-17T11:09:21;15.27;;;7.67;;
66739;SDS011;53653;52.188;8.602;2023-08-17T11:12:43;12.88;;;6.80;;
66739;SDS011;53653;52.188;8.602;2023-08-17T11:15:09;11.32;;;5.70;;
66739;SDS011;53653;52.188;8.602;2023-08-17T11:17:35;15.18;;;7.13;;
66739;SDS011;53653;52.188;8.602;2023-08-17T11:20:08;13.33;;;7.50;;
66739;SDS011;53653;52.188;8.602;2023-08-17T11:22:38;13.20;;;7.10;;
66739;SDS011;53653;52.188;8.602;2023-08-17T11:25:06;14.23;;;7.18;;
66739;SDS011;53653;52.188;8.602;2023-08-17T11:27:32;13.88;;;7.22;;
66739;SDS011;53653;52.188;8.602;2023-08-17T11:29:59;13.00;;;7.10;;
66739;SDS011;53653;52.188;8.602;2023-08-17T11:32:30;20.20;;;9.17;;
66739;SDS011;53653;52.188;8.602;2023-08-17T11:38:55;13.43;;;7.65;;
66739;SDS011;53653;52.188;8.602;2023-08-17T11:42:07;14.88;;;7.80;;
66739;SDS011;53653;52.188;8.602;2023-08-17T11:44:34;11.50;;;5.60;;
66739;SDS011;53653;52.188;8.602;2023-08-17T11:47:03;13.43;;;7.40;;
66739;SDS011;53653;52.188;8.602;2023-08-17T11:49:42;16.48;;;7.00;;
66739;SDS011;53653;52.188;8.602;2023-08-17T11:52:10;14.15;;;7.43;;
66739;SDS011;53653;52.188;8.602;2023-08-17T11:54:46;14.98;;;7.30;;
66739;SDS011;53653;52.188;8.602;2023-08-17T11:57:12;16.80;;;7.22;;
66739;SDS011;53653;52.188;8.602;2023-08-17T11:59:44;11.37;;;6.00;;
66739;SDS011;53653;52.188;8.602;2023-08-17T12:02:23;11.60;;;6.55;;
66739;SDS011;53653;52.188;8.602;2023-08-17T12:04:50;13.63;;;6.93;;
66739;SDS011;53653;52.188;8.602;2023-08-17T12:07:23;11.82;;;6.53;;
66739;SDS011;53653;52.188;8.602;2023-08-17T12:09:50;12.15;;;6.05;;
66739;SDS011;53653;52.188;8.602;2023-08-17T12:12:19;11.47;;;5.53;;
66739;SDS011;53653;52.188;8.602;2023-08-17T12:14:52;8.20;;;4.22;;
66739;SDS011;53653;52.188;8.602;2023-08-17T12:17:20;10.98;;;5.35;;
66739;SDS011;53653;52.188;8.602;2023-08-17T12:19:50;10.80;;;5.57;;
66739;SDS011;53653;52.188;8.602;2023-08-17T12:22:22;12.80;;;6.32;;
66739;SDS011;53653;52.188;8.602;2023-08-17T12:25:06;10.97;;;5.40;;
66739;SDS011;53653;52.188;8.602;2023-08-17T12:28:14;10.25;;;5.32;;
66739;SDS011;53653;52.188;8.602;2023-08-17T12:31:20;12.40;;;5.65;;
66739;SDS011;53653;52.188;8.602;2023-08-17T12:33:50;9.65;;;5.10;;
66739;SDS011;53653;52.188;8.602;2023-08-17T12:36:17;10.40;;;5.22;;
66739;SDS011;53653;52.188;8.602;2023-08-17T12:38:46;12.60;;;5.47;;
66739;SDS011;53653;52.188;8.602;2023-08-17T12:41:16;9.85;;;4.45;;
66739;SDS011;53653;52.188;8.602;2023-08-17T12:43:55;11.45;;;4.93;;
66739;SDS011;53653;52.188;8.602;2023-08-17T12:46:27;10.18;;;4.45;;
66739;SDS011;53653;52.188;8.602;2023-08-17T12:48:52;12.17;;;4.20;;
66739;SDS011;53653;52.188;8.602;2023-08-17T12:51:25;9.70;;;3.47;;
66739;SDS011;53653;52.188;8.602;2023-08-17T12:54:40;9.27;;;3.70;;
66739;SDS011;53653;52.188;8.602;2023-08-17T12:57:38;9.13;;;4.40;;
66739;SDS011;53653;52.188;8.602;2023-08-17T13:00:37;8.80;;;3.30;;
66739;SDS011;53653;52.188;8.602;2023-08-17T13:03:02;8.63;;;4.00;;
66739;SDS011;53653;52.188;8.602;2023-08-17T13:05:28;11.25;;;4.38;;
66739;SDS011;53653;52.188;8.602;2023-08-17T13:07:55;9.80;;;3.97;;
66739;SDS011;53653;52.188;8.602;2023-08-17T13:10:23;9.77;;;4.35;;
66739;SDS011;53653;52.188;8.602;2023-08-17T13:12:55;10.87;;;4.43;;
66739;SDS011;53653;52.188;8.602;2023-08-17T13:15:25;10.77;;;4.50;;
66739;SDS011;53653;52.188;8.602;2023-08-17T13:17:58;11.02;;;5.00;;
66739;SDS011;53653;52.188;8.602;2023-08-17T13:20:29;14.77;;;5.60;;
66739;SDS011;53653;52.188;8.602;2023-08-17T13:22:55;11.65;;;5.68;;
66739;SDS011;53653;52.188;8.602;2023-08-17T13:25:42;11.07;;;5.20;;
66739;SDS011;53653;52.188;8.602;2023-08-17T13:28:26;12.48;;;4.50;;
66739;SDS011;53653;52.188;8.602;2023-08-17T13:30:58;12.40;;;5.90;;
66739;SDS011;53653;52.188;8.602;2023-08-17T13:33:25;12.15;;;5.43;;
66739;SDS011;53653;52.188;8.602;2023-08-17T13:36:08;10.65;;;5.32;;
66739;SDS011;53653;52.188;8.602;2023-08-17T13:38:34;13.87;;;5.90;;
66739;SDS011;53653;52.188;8.602;2023-08-17T13:40:59;13.57;;;5.65;;
66739;SDS011;53653;52.188;8.602;2023-08-17T13:43:26;10.68;;;4.57;;
66739;SDS011;53653;52.188;8.602;2023-08-17T13:45:53;13.37;;;5.53;;
66739;SDS011;53653;52.188;8.602;2023-08-17T13:48:23;14.50;;;4.90;;
66739;SDS011;53653;52.188;8.602;2023-08-17T13:50:49;10.93;;;4.97;;
66739;SDS011;53653;52.188;8.602;2023-08-17T13:53:14;15.97;;;5.20;;
66739;SDS011;53653;52.188;8.602;2023-08-17T13:56:21;14.18;;;6.03;;
66739;SDS011;53653;52.188;8.602;2023-08-17T13:58:47;11.77;;;5.17;;
66739;SDS011;53653;52.188;8.602;2023-08-17T14:01:13;13.98;;;5.88;;
66739;SDS011;53653;52.188;8.602;2023-08-17T14:03:39;12.40;;;5.23;;
66739;SDS011;53653;52.188;8.602;2023-08-17T14:06:08;10.00;;;3.63;;
66739;SDS011;53653;52.188;8.602;2023-08-17T14:08:45;9.18;;;4.03;;
66739;SDS011;53653;52.188;8.602;2023-08-17T14:11:11;13.07;;;5.20;;
66739;SDS011;53653;52.188;8.602;2023-08-17T14:13:38;17.13;;;5.20;;
66739;SDS011;53653;52.188;8.602;2023-08-17T14:16:11;12.85;;;6.05;;
66739;SDS011;53653;52.188;8.602;2023-08-17T14:19:07;13.73;;;5.10;;
66739;SDS011;53653;52.188;8.602;2023-08-17T14:21:44;13.05;;;5.05;;
66739;SDS011;53653;52.188;8.602;2023-08-17T14:24:23;11.38;;;4.65;;
66739;SDS011;53653;52.188;8.602;2023-08-17T14:26:49;13.53;;;5.20;;
66739;SDS011;53653;52.188;8.602;2023-08-17T14:29:17;12.23;;;5.32;;
66739;SDS011;53653;52.188;8.602;2023-08-17T14:31:58;10.45;;;4.68;;
66739;SDS011;53653;52.188;8.602;2023-08-17T14:34:23;14.03;;;4.97;;
66739;SDS011;53653;52.188;8.602;2023-08-17T14:36:52;14.05;;;5.93;;
66739;SDS011;53653;52.188;8.602;2023-08-17T14:39:18;15.40;;;5.33;;
66739;SDS011;53653;52.188;8.602;2023-08-17T14:41:44;11.50;;;5.70;;
66739;SDS011;53653;52.188;8.602;2023-08-17T14:44:11;11.27;;;4.83;;
66739;SDS011;53653;52.188;8.602;2023-08-17T14:46:39;13.00;;;5.40;;
66739;SDS011;53653;52.188;8.602;2023-08-17T14:49:10;12.60;;;4.90;;
66739;SDS011;53653;52.188;8.602;2023-08-17T14:51:46;15.77;;;5.55;;
66739;SDS011;53653;52.188;8.602;2023-08-17T14:54:14;15.73;;;5.90;;
66739;SDS011;53653;52.188;8.602;2023-08-17T14:56:42;13.93;;;4.17;;
66739;SDS011;53653;52.188;8.602;2023-08-17T14:59:19;15.02;;;6.07;;
66739;SDS011;53653;52.188;8.602;2023-08-17T15:01:47;14.30;;;5.57;;
66739;SDS011;53653;52.188;8.602;2023-08-17T15:04:16;11.30;;;4.60;;
66739;SDS011;53653;52.188;8.602;2023-08-17T15:06:46;15.40;;;5.53;;
66739;SDS011;53653;52.188;8.602;2023-08-17T15:09:17;13.20;;;4.43;;